createdAt,value
2023-04-24T00:01:38.291Z,57.7
2023-04-24T00:07:31.960Z,57.6
2023-04-24T00:13:23.736Z,57.6
2023-04-24T00:19:14.780Z,57.5
2023-04-24T00:25:06.450Z,57.5
2023-04-24T00:30:57.361Z,57.4
2023-04-24T00:36:48.865Z,57.4
2023-04-24T00:42:40.281Z,57.3
2023-04-24T00:48:31.129Z,57.3
2023-04-24T00:54:21.917Z,57.2
2023-04-24T00:59:58.282Z,57.1
2023-04-24T01:05:51.333Z,57.1
2023-04-24T01:11:42.893Z,57
2023-04-24T01:17:34.732Z,57
2023-04-24T01:23:26.829Z,56.9
2023-04-24T01:29:18.082Z,56.9
2023-04-24T01:35:10.136Z,56.8
2023-04-24T01:40:46.444Z,56.8
2023-04-24T01:46:37.625Z,56.7
2023-04-24T01:52:29.911Z,56.6
2023-04-24T01:58:21.279Z,56.6
2023-04-24T02:04:14.637Z,56.6
2023-04-24T02:10:06.757Z,56.5
2023-04-24T02:15:58.120Z,56.4
2023-04-24T02:21:49.098Z,56.4
2023-04-24T02:27:24.795Z,56.3
2023-04-24T02:33:16.352Z,56.3
2023-04-24T02:39:07.590Z,56.3
2023-04-24T02:44:59.029Z,56.2
2023-04-24T02:50:51.138Z,56.1
2023-04-24T02:56:42.283Z,56.1
2023-04-24T03:02:34.486Z,56.1
2023-04-24T03:08:27.969Z,56
2023-04-24T03:14:19.109Z,55.9
2023-04-24T03:20:14.127Z,55.9
2023-04-24T03:26:06.061Z,55.8
2023-04-24T03:31:57.928Z,55.8
2023-04-24T03:37:49.845Z,55.7
2023-04-24T03:43:28.522Z,55.7
2023-04-24T03:49:20.146Z,55.6
2023-04-24T03:55:13.038Z,55.6
2023-04-24T04:01:04.531Z,55.5
2023-04-24T04:06:58.336Z,55.4
2023-04-24T04:12:49.815Z,55.3
2023-04-24T04:18:41.532Z,55.3
2023-04-24T04:24:32.564Z,55.3
2023-04-24T04:30:24.346Z,55.2
2023-04-24T04:36:16.184Z,55.1
2023-04-24T04:42:08.111Z,55.1
2023-04-24T04:47:59.804Z,55.1
2023-04-24T04:53:51.873Z,55
2023-04-24T04:59:44.038Z,54.9
2023-04-24T05:05:39.655Z,54.8
2023-04-24T05:11:38.010Z,54.8
2023-04-24T05:17:42.013Z,54.7
2023-04-24T05:23:33.465Z,54.6
2023-04-24T05:29:08.844Z,54.6
2023-04-24T05:34:45.699Z,54.6
2023-04-24T05:40:36.811Z,54.5
2023-04-24T05:46:28.719Z,54.4
2023-04-24T05:52:04.503Z,54.4
2023-04-24T05:57:56.291Z,54.3
2023-04-24T06:03:49.075Z,54.3
2023-04-24T06:09:43.223Z,54.2
2023-04-24T06:15:04.158Z,54.2
2023-04-24T06:20:56.657Z,54.1
2023-04-24T06:26:47.854Z,54.1
2023-04-24T06:32:24.883Z,54
2023-04-24T06:38:24.377Z,53.9
2023-04-24T06:44:00.738Z,53.9
2023-04-24T06:49:38.027Z,53.9
2023-04-24T06:55:29.655Z,53.8
2023-04-24T07:01:21.100Z,53.8
2023-04-24T07:07:16.643Z,53.7
2023-04-24T07:13:08.726Z,53.6
2023-04-24T07:18:45.847Z,53.6
2023-04-24T07:24:23.003Z,53.6
2023-04-24T07:30:01.047Z,53.5
2023-04-24T07:35:53.062Z,53.4
2023-04-24T07:41:44.756Z,53.4
2023-04-24T07:47:37.223Z,53.3
2023-04-24T07:53:42.747Z,53.3
2023-04-24T07:59:37.143Z,53.3
2023-04-24T08:05:33.566Z,53.2
2023-04-24T08:11:11.795Z,53.1
2023-04-24T08:17:03.364Z,53.1
2023-04-24T08:22:56.001Z,53
2023-04-24T08:28:49.541Z,52.9
2023-04-24T08:34:26.554Z,52.9
2023-04-24T08:40:11.960Z,52.9
2023-04-24T08:46:06.137Z,52.8
2023-04-24T08:52:11.762Z,52.8
2023-04-24T08:58:03.252Z,52.7
2023-04-24T09:03:40.526Z,52.5
2023-04-24T09:09:34.657Z,53.1
2023-04-24T09:15:25.910Z,53.8
2023-04-24T09:21:02.142Z,54.4
2023-04-24T09:26:54.119Z,54.8
2023-04-24T09:32:31.611Z,55.1
2023-04-24T09:38:07.256Z,55.6
2023-04-24T09:43:58.894Z,56.3
2023-04-24T09:50:01.940Z,57.1
2023-04-24T09:55:56.337Z,57.8
2023-04-24T10:01:48.452Z,58.5
2023-04-24T10:07:41.749Z,59.2
2023-04-24T10:13:33.908Z,59.8
2023-04-24T10:19:26.124Z,60.4
2023-04-24T10:25:18.208Z,61.1
2023-04-24T10:31:09.542Z,61.4
2023-04-24T10:37:01.697Z,61.9
2023-04-24T10:42:53.720Z,62.4
2023-04-24T10:48:45.667Z,62.9
2023-04-24T10:54:37.470Z,63.4
2023-04-24T11:00:29.801Z,63.8
2023-04-24T11:06:08.261Z,64.1
2023-04-24T11:12:01.722Z,64.1
2023-04-24T11:17:39.357Z,64.1
